Airfield :
LOGIN :

Register | Disclaimer

   EN    FR    IT 

 










Legend :    VFR   Marginal VFR   IFR   Intensive IFR   Very Intensive IFR
Visi :
Ceiling :
>= 8 km
>= 3000ft
5 to 8 km
1000 to 3000 ft
1500m to 5 km
500 to 1000 ft
800 to 1500m
200 to 500 ft
< 800m
< 200 ft
Symbols :   Thunderstorms  Fog  Heavy snow  Heavy precipitations  Wind > 20 kt
SIGMETs :     Misc.  Thunderstorms  Icing  Turbulence  Mountain Waves  Volcanic Ashes






- Airport Elevation : 656 ft
- IATA code : CMN


GMMN - Casablanca Mohammed V

CURRENT METAR :
  • 070930Z 01007KT 340V050 CAVOK 21/14 Q1022 NOSIG

EXPIRED METARs :
  • 070900Z 04006KT 010V080 CAVOK 20/15 Q1022 NOSIG
  • 070830Z 06003KT 020V100 CAVOK 18/15 Q1021 NOSIG
  • 070800Z 09004KT 050V110 CAVOK 16/15 Q1021 NOSIG
  • 070730Z 10005KT CAVOK 16/15 Q1021 NOSIG

TAF TAF GMMN
Valid from the 07 at 06:00 until the 08 at 12:00 UTC


070500Z 0706/0812 04006KT 9999 BKN006 BKN200
TEMPO 0706/0708 3000 BR BKN004 BKN200
FM071000 04008KT CAVOK
BECMG 0711/0714 36014KT
BECMG 0719/0722 04004KT
TEMPO 0801/0808 2000 BR BKN006



MET'MAP, your aeronautical weather chart ! - Copyright ORBIFLY December 2007 - Disclaimer

ORBIFLY MET'MAP TEAM :

Programming & Development : Alexandra Zaïnal
Concept & original design : Baudouin d'Aumeries
Assistance for programming : Marc-Olivier Méhu
Technical & hardware support : Manuel Goepfert

Contact : metmap@orbifly.com




SOURCES & CREDITS :

   NOAA